createdAt,value
2019-03-18T00:01:01.820Z,95917.48
2019-03-18T00:03:32.297Z,95879.50
2019-03-18T00:06:02.776Z,95898.33
2019-03-18T00:08:33.282Z,95915.67
2019-03-18T00:11:03.945Z,95905.03
2019-03-18T00:13:34.470Z,95854.97
2019-03-18T00:16:05.080Z,95905.53
2019-03-18T00:18:35.864Z,95921.27
2019-03-18T00:21:06.386Z,95936.16
2019-03-18T00:23:37.010Z,95886.38
2019-03-18T00:26:10.105Z,95939.11
2019-03-18T00:28:40.610Z,95922.09
2019-03-18T00:31:13.068Z,95932.23
2019-03-18T00:33:46.479Z,95956.95
2019-03-18T00:36:22.590Z,95976.92
2019-03-18T00:38:53.554Z,95974.30
2019-03-18T00:41:29.685Z,95966.28
2019-03-18T00:44:03.551Z,95967.91
2019-03-18T00:46:34.192Z,95972.67
2019-03-18T00:49:05.464Z,95963.02
2019-03-18T00:51:36.401Z,95962.02
2019-03-18T00:54:08.642Z,95974.16
2019-03-18T00:56:39.618Z,95976.11
2019-03-18T00:59:10.459Z,96000.98
2019-03-18T01:01:41.144Z,96000.98
2019-03-18T01:04:11.767Z,96020.31
2019-03-18T01:06:42.319Z,96021.95
2019-03-18T01:09:12.868Z,96026.20
2019-03-18T01:11:43.649Z,96044.59
2019-03-18T01:14:14.167Z,96060.63
2019-03-18T01:16:46.098Z,96072.77
2019-03-18T01:19:16.836Z,96069.47
2019-03-18T01:21:49.043Z,96053.42
2019-03-18T01:24:22.694Z,96055.38
2019-03-18T01:27:00.389Z,96054.73
2019-03-18T01:29:27.574Z,96043.27
2019-03-18T01:31:58.053Z,95999.34
2019-03-18T01:34:28.500Z,96004.92
2019-03-18T01:36:59.184Z,96013.93
2019-03-18T01:39:29.824Z,96001.97
2019-03-18T01:42:00.417Z,95993.45
2019-03-18T01:44:31.003Z,95986.25
2019-03-18T01:47:02.254Z,95997.39
2019-03-18T01:49:32.635Z,95987.25
2019-03-18T01:52:04.696Z,96001.65
2019-03-18T01:54:35.085Z,95986.25
2019-03-18T01:57:05.608Z,96013.93
2019-03-18T01:59:36.199Z,95986.89
2019-03-18T02:02:07.159Z,96020.14
2019-03-18T02:04:37.799Z,96010.81
2019-03-18T02:07:08.384Z,95968.91
2019-03-18T02:09:45.647Z,95954.00
2019-03-18T02:12:15.951Z,95975.44
2019-03-18T02:14:46.692Z,96000.84
2019-03-18T02:17:17.223Z,95985.12
2019-03-18T02:19:47.841Z,95974.80
2019-03-18T02:22:18.318Z,95969.72
2019-03-18T02:24:48.811Z,95973.98
2019-03-18T02:27:19.495Z,95993.45
2019-03-18T02:29:49.909Z,95980.86
2019-03-18T02:32:20.336Z,95974.47
2019-03-18T02:34:50.874Z,95971.84
2019-03-18T02:37:21.368Z,95955.14
2019-03-18T02:39:51.814Z,95972.17
2019-03-18T02:42:24.186Z,95961.38
2019-03-18T02:44:54.562Z,95964.65
2019-03-18T02:47:43.787Z,95983.31
2019-03-18T02:50:14.217Z,95944.67
2019-03-18T02:53:03.054Z,95966.28
2019-03-18T02:55:38.250Z,95963.83
2019-03-18T02:58:08.653Z,95966.28
2019-03-18T03:00:39.080Z,95969.55
2019-03-18T03:03:09.436Z,95975.79
2019-03-18T03:05:39.979Z,95969.22
2019-03-18T03:08:11.240Z,95972.67
2019-03-18T03:10:43.107Z,95965.29
2019-03-18T03:13:14.957Z,96000.34
2019-03-18T03:15:45.253Z,95953.51
2019-03-18T03:18:15.623Z,95987.89
2019-03-18T03:20:45.997Z,96005.91
2019-03-18T03:23:17.814Z,95987.56
2019-03-18T03:25:48.171Z,96012.13
2019-03-18T03:28:18.517Z,96016.06
2019-03-18T03:30:49.263Z,96033.44
2019-03-18T03:33:19.581Z,96032.13
2019-03-18T03:35:51.723Z,96035.08
2019-03-18T03:38:22.770Z,96037.70
2019-03-18T03:40:53.508Z,96018.02
2019-03-18T03:43:23.946Z,96044.59
2019-03-18T03:45:54.232Z,96039.83
2019-03-18T03:48:24.586Z,96052.11
2019-03-18T03:50:54.924Z,96020.95
2019-03-18T03:53:25.233Z,96047.85
2019-03-18T03:55:55.662Z,96020.64
2019-03-18T03:58:26.305Z,96013.44
2019-03-18T04:00:57.683Z,96026.20
2019-03-18T04:03:38.230Z,96025.89
2019-03-18T04:06:00.649Z,96032.59
2019-03-18T04:08:30.846Z,96020.81
2019-03-18T04:11:02.314Z,96005.91
2019-03-18T04:13:32.727Z,96026.20
2019-03-18T04:16:03.030Z,96030.14
2019-03-18T04:18:33.354Z,96009.84
2019-03-18T04:21:03.698Z,95987.56
2019-03-18T04:23:34.307Z,95973.98
2019-03-18T04:26:07.528Z,95953.69
2019-03-18T04:28:37.857Z,95968.09
2019-03-18T04:31:08.146Z,95943.37
2019-03-18T04:33:39.274Z,95935.03
2019-03-18T04:36:10.449Z,95905.03
2019-03-18T04:38:40.785Z,95913.05
2019-03-18T04:41:12.285Z,95910.59
2019-03-18T04:43:43.008Z,95953.86
2019-03-18T04:46:14.138Z,95953.86
2019-03-18T04:48:45.707Z,95983.31
2019-03-18T04:51:16.049Z,95969.72
2019-03-18T04:53:46.475Z,96017.38
2019-03-18T04:56:16.804Z,95985.94
2019-03-18T04:58:50.479Z,96025.71
2019-03-18T05:01:21.637Z,96023.76
2019-03-18T05:03:52.186Z,96064.89
2019-03-18T05:06:22.658Z,96081.28
2019-03-18T05:08:53.233Z,96111.75
2019-03-18T05:11:25.069Z,96120.59
2019-03-18T05:13:55.515Z,96097.02
2019-03-18T05:16:34.864Z,96110.12
2019-03-18T05:19:05.418Z,96118.95
2019-03-18T05:21:35.937Z,96140.76
2019-03-18T05:24:24.973Z,96148.79
2019-03-18T05:26:55.338Z,96138.95
2019-03-18T05:29:25.693Z,96148.79
2019-03-18T05:31:56.916Z,96116.02
2019-03-18T05:34:32.032Z,96100.28
2019-03-18T05:37:05.107Z,96089.63
2019-03-18T05:39:35.596Z,96102.09
2019-03-18T05:42:07.518Z,96095.20
2019-03-18T05:44:38.050Z,96043.27
2019-03-18T05:47:38.526Z,96015.06
2019-03-18T05:50:01.399Z,95963.02
2019-03-18T05:52:31.878Z,95954.50
2019-03-18T05:55:02.231Z,95920.42
2019-03-18T05:57:33.039Z,95970.22
2019-03-18T06:00:03.463Z,95965.47
2019-03-18T06:02:33.873Z,95956.13
2019-03-18T06:05:04.823Z,95973.16
2019-03-18T06:07:35.219Z,95993.34
2019-03-18T06:10:06.507Z,96076.85
2019-03-18T06:12:44.304Z,96117.33
2019-03-18T06:15:18.437Z,96142.56
2019-03-18T06:17:52.620Z,96184.88
2019-03-18T06:20:21.244Z,96240.94
2019-03-18T06:22:53.303Z,96230.94
2019-03-18T06:25:23.803Z,96309.20
2019-03-18T06:27:54.253Z,96369.25
2019-03-18T06:30:24.958Z,96333.16
2019-03-18T06:32:55.500Z,96304.77
2019-03-18T06:35:25.996Z,96263.28
2019-03-18T06:37:56.742Z,96217.66
2019-03-18T06:40:29.052Z,96205.19
2019-03-18T06:42:59.887Z,96193.39
2019-03-18T06:45:30.334Z,96161.28
2019-03-18T06:48:05.063Z,96146.16
2019-03-18T06:50:33.039Z,96148.32
2019-03-18T06:53:04.295Z,96148.47
2019-03-18T06:55:34.666Z,96198.65
2019-03-18T06:58:05.520Z,96241.92
2019-03-18T07:00:35.950Z,96272.63
2019-03-18T07:03:06.324Z,96373.52
2019-03-18T07:05:40.526Z,96380.27
2019-03-18T07:08:10.986Z,96438.54
2019-03-18T07:10:49.702Z,96505.56
2019-03-18T07:13:20.661Z,96491.75
2019-03-18T07:15:51.660Z,96567.00
2019-03-18T07:18:22.184Z,96626.35
2019-03-18T07:20:53.390Z,96653.96
2019-03-18T07:23:24.260Z,96633.26
2019-03-18T07:25:55.895Z,96564.71
2019-03-18T07:28:26.477Z,96516.41
2019-03-18T07:30:58.391Z,96523.31
2019-03-18T07:33:29.014Z,96552.55
2019-03-18T07:36:00.418Z,96583.59
2019-03-18T07:38:30.934Z,96583.44
2019-03-18T07:41:01.433Z,96561.58
2019-03-18T07:43:31.875Z,96595.77
2019-03-18T07:46:04.155Z,96660.05
2019-03-18T07:48:34.592Z,96808.42
2019-03-18T07:51:07.292Z,97034.20
2019-03-18T07:53:37.744Z,97253.38
2019-03-18T07:56:08.452Z,97370.73
2019-03-18T07:58:39.011Z,97401.59
2019-03-18T08:01:10.065Z,97840.11
2019-03-18T08:03:41.066Z,98102.58
2019-03-18T08:06:11.718Z,98320.25
2019-03-18T08:08:45.390Z,98158.30
2019-03-18T08:11:16.436Z,97939.14
2019-03-18T08:13:47.029Z,97642.53
2019-03-18T08:16:17.960Z,97415.95
2019-03-18T08:18:53.078Z,97214.12
2019-03-18T08:21:23.537Z,97102.61
2019-03-18T08:23:54.256Z,97051.83
2019-03-18T08:26:27.089Z,96974.57
2019-03-18T08:28:56.666Z,96961.56
2019-03-18T08:31:27.211Z,96920.70
2019-03-18T08:33:58.967Z,96826.85
2019-03-18T08:36:31.763Z,96744.44
2019-03-18T08:39:04.290Z,96654.47
2019-03-18T08:41:34.776Z,96688.17
2019-03-18T08:44:05.339Z,96701.16
2019-03-18T08:46:35.900Z,96747.89
2019-03-18T08:49:06.371Z,96741.97
2019-03-18T08:51:36.832Z,96756.45
2019-03-18T08:54:07.625Z,96827.67
2019-03-18T08:56:38.266Z,96863.58
2019-03-18T08:59:08.712Z,96901.60
2019-03-18T09:01:39.263Z,96943.41
2019-03-18T09:04:10.691Z,96932.88
2019-03-18T09:06:43.466Z,96934.85
2019-03-18T09:09:14.188Z,96970.62
2019-03-18T09:11:48.791Z,96984.29
2019-03-18T09:14:19.459Z,96968.81
2019-03-18T09:16:55.866Z,97029.42
2019-03-18T09:19:26.531Z,97030.41
2019-03-18T09:21:57.140Z,97082.17
2019-03-18T09:24:28.268Z,97130.00
2019-03-18T09:27:02.678Z,97037.16
2019-03-18T09:29:34.542Z,97052.16
2019-03-18T09:32:08.612Z,96959.92
2019-03-18T09:34:41.323Z,96865.72
2019-03-18T09:37:12.135Z,96823.56
2019-03-18T09:39:46.781Z,96851.57
2019-03-18T09:42:18.118Z,96836.40
2019-03-18T09:44:48.963Z,96833.93
2019-03-18T09:47:19.707Z,96868.03
2019-03-18T09:49:50.356Z,96877.41
2019-03-18T09:52:20.873Z,96935.84
2019-03-18T09:54:51.621Z,96947.04
2019-03-18T09:57:26.259Z,96821.09
2019-03-18T09:59:55.211Z,96834.26
2019-03-18T10:02:26.004Z,96872.80
2019-03-18T10:04:56.648Z,96914.11
2019-03-18T10:07:27.150Z,96998.62
2019-03-18T10:09:57.988Z,97077.20
2019-03-18T10:12:28.580Z,97121.92
2019-03-18T10:14:59.934Z,97138.25
2019-03-18T10:17:30.659Z,97128.84
2019-03-18T10:20:09.247Z,97130.66
2019-03-18T10:22:43.183Z,97044.41
2019-03-18T10:25:19.327Z,97017.89
2019-03-18T10:27:49.785Z,97036.34
2019-03-18T10:30:25.046Z,97035.84
2019-03-18T10:32:55.980Z,97009.33
2019-03-18T10:35:29.370Z,96977.87
2019-03-18T10:37:59.742Z,96977.70
2019-03-18T10:40:30.447Z,96950.00
2019-03-18T10:43:01.372Z,96907.69
2019-03-18T10:45:50.525Z,96965.02
2019-03-18T10:48:20.873Z,96978.69
2019-03-18T10:50:51.347Z,96961.89
2019-03-18T10:53:23.417Z,96956.59
2019-03-18T10:55:54.259Z,96933.88
2019-03-18T10:58:24.638Z,96892.71
2019-03-18T11:00:55.438Z,96891.89
2019-03-18T11:03:26.020Z,96874.45
2019-03-18T11:05:56.892Z,96848.77
2019-03-18T11:08:27.532Z,96844.81
2019-03-18T11:10:58.297Z,96850.91
2019-03-18T11:13:33.606Z,96911.15
2019-03-18T11:16:07.127Z,96970.13
2019-03-18T11:19:05.304Z,97007.18
2019-03-18T11:21:36.347Z,97047.70
2019-03-18T11:24:06.846Z,97062.86
2019-03-18T11:26:37.406Z,97040.45
2019-03-18T11:29:07.933Z,97099.97
2019-03-18T11:31:38.687Z,97049.02
2019-03-18T11:34:10.735Z,97100.63
2019-03-18T11:36:42.776Z,97133.47
2019-03-18T11:39:13.434Z,97188.03
2019-03-18T11:41:50.569Z,97219.89
2019-03-18T11:44:20.958Z,97212.30
2019-03-18T11:46:58.643Z,97217.09
2019-03-18T11:49:39.168Z,97193.34
2019-03-18T11:52:07.808Z,97209.01
2019-03-18T11:54:38.430Z,97290.33
2019-03-18T11:57:09.231Z,97303.89
2019-03-18T11:59:41.104Z,97301.05
2019-03-18T12:02:11.875Z,97283.89
2019-03-18T12:04:44.336Z,97317.75
2019-03-18T12:07:15.011Z,97360.66
2019-03-18T12:09:45.716Z,97311.81
2019-03-18T12:12:19.170Z,97332.27
2019-03-18T12:14:49.721Z,97371.22
2019-03-18T12:17:21.073Z,97401.59
2019-03-18T12:19:52.236Z,97379.31
2019-03-18T12:22:22.968Z,97340.19
2019-03-18T12:25:11.737Z,97293.30
2019-03-18T12:27:43.767Z,97255.68
2019-03-18T12:30:21.813Z,97223.19
2019-03-18T12:32:52.696Z,97245.62
2019-03-18T12:35:23.880Z,97167.75
2019-03-18T12:37:59.964Z,97247.77
2019-03-18T12:40:30.976Z,97231.11
2019-03-18T12:43:04.158Z,97191.36
2019-03-18T12:45:34.838Z,97168.91
2019-03-18T12:48:07.496Z,97112.53
2019-03-18T12:50:55.387Z,97003.39
2019-03-18T12:53:13.962Z,97013.11
2019-03-18T12:55:47.421Z,97039.80
2019-03-18T12:58:22.613Z,96971.28
2019-03-18T13:00:55.412Z,96928.60
2019-03-18T13:03:26.846Z,96952.83
2019-03-18T13:05:58.624Z,96957.61
2019-03-18T13:08:29.577Z,96964.86
2019-03-18T13:11:08.799Z,97035.02
2019-03-18T13:13:35.273Z,97024.31
2019-03-18T13:16:07.478Z,97026.78
2019-03-18T13:18:40.768Z,97084.48
2019-03-18T13:21:13.280Z,97112.53
2019-03-18T13:23:45.538Z,97114.51
2019-03-18T13:26:16.298Z,97164.29
2019-03-18T13:28:47.257Z,97108.22
2019-03-18T13:31:18.910Z,97024.81
2019-03-18T13:33:49.792Z,96952.97
2019-03-18T13:36:25.185Z,96845.31
2019-03-18T13:39:04.449Z,96810.41
2019-03-18T13:41:40.332Z,96812.87
2019-03-18T13:44:23.908Z,96844.00
2019-03-18T13:47:07.183Z,96769.27
2019-03-18T13:49:44.068Z,96739.34
2019-03-18T13:52:21.671Z,96782.11
2019-03-18T13:54:57.244Z,96806.45
2019-03-18T14:01:06.320Z,96737.20
2019-03-18T14:37:31.154Z,96879.88
2019-03-18T14:40:21.620Z,96781.61
2019-03-18T14:43:56.718Z,96789.67
2019-03-18T14:46:13.788Z,96709.05
2019-03-18T14:48:47.629Z,96697.05
2019-03-18T14:51:21.497Z,96702.14
2019-03-18T14:53:57.311Z,96664.16
2019-03-18T14:56:28.523Z,96636.71
2019-03-18T14:59:00.316Z,96545.81
2019-03-18T15:01:31.263Z,96477.95
2019-03-18T15:04:02.312Z,96437.89
2019-03-18T15:06:33.606Z,96314.45
2019-03-18T15:09:04.187Z,96184.23
2019-03-18T15:11:35.300Z,96104.72
2019-03-18T15:14:06.018Z,96018.36
2019-03-18T15:16:36.550Z,96014.92
2019-03-18T15:19:07.147Z,95992.32
2019-03-18T15:21:38.236Z,95990.19
2019-03-18T15:24:16.802Z,95968.58
2019-03-18T15:26:48.546Z,95906.02
2019-03-18T15:29:19.076Z,95864.47
2019-03-18T15:31:53.609Z,95822.60
2019-03-18T15:34:26.004Z,95786.10
2019-03-18T15:36:56.399Z,95732.14
2019-03-18T15:39:26.942Z,95678.66
2019-03-18T15:41:57.440Z,95623.42
2019-03-18T15:44:29.449Z,95617.23
2019-03-18T15:47:03.198Z,95594.33
2019-03-18T15:49:34.030Z,95552.19
2019-03-18T15:52:11.024Z,95505.16
2019-03-18T15:54:53.827Z,95501.41
2019-03-18T15:57:29.614Z,95501.41
2019-03-18T15:59:57.332Z,95425.16
2019-03-18T16:02:31.356Z,95331.80
2019-03-18T16:08:28.594Z,95352.56
2019-03-18T16:11:01.037Z,95325.12
2019-03-18T16:13:40.475Z,95338.98
2019-03-18T16:16:24.142Z,95331.48
2019-03-18T16:19:05.638Z,95288.77
2019-03-18T16:21:44.587Z,95294.31
2019-03-18T16:24:17.226Z,95252.39
2019-03-18T16:26:48.182Z,95232.69
2019-03-18T16:29:31.456Z,95213.74
2019-03-18T16:32:12.474Z,95177.28
2019-03-18T16:34:46.108Z,95135.69
2019-03-18T16:37:16.951Z,95089.59
2019-03-18T16:39:48.414Z,95090.91
2019-03-18T16:42:24.665Z,95088.61
2019-03-18T16:44:57.959Z,95076.40
2019-03-18T16:47:31.257Z,95054.10
2019-03-18T16:50:01.827Z,95016.47
2019-03-18T16:52:37.597Z,95023.94
2019-03-18T16:55:09.249Z,95007.50
2019-03-18T16:57:45.106Z,95019.58
2019-03-18T17:00:29.859Z,94971.40
2019-03-18T17:03:02.368Z,94918.16
2019-03-18T17:05:47.626Z,94888.24
2019-03-18T17:08:18.572Z,94871.64
2019-03-18T17:10:50.836Z,94867.09
2019-03-18T17:13:22.767Z,94838.30
2019-03-18T17:15:53.611Z,94846.45
2019-03-18T17:18:26.477Z,94841.22
2019-03-18T17:20:59.701Z,94856.84
2019-03-18T17:23:31.031Z,94833.77
2019-03-18T17:26:05.690Z,94807.09
2019-03-18T17:28:38.571Z,94821.08
2019-03-18T17:31:09.187Z,94813.42
2019-03-18T17:37:18.326Z,94805.78
2019-03-18T17:40:05.411Z,94772.92
2019-03-18T17:56:11.823Z,94715.75
2019-03-18T17:58:50.573Z,94734.08
2019-03-18T18:01:39.809Z,94699.62
2019-03-18T18:04:35.845Z,94693.94
2019-03-18T18:14:38.157Z,94645.20
2019-03-18T18:17:43.606Z,94669.73
2019-03-18T18:20:58.298Z,94649.73
2019-03-18T18:23:34.909Z,94642.59
2019-03-18T18:26:25.865Z,94670.86
2019-03-18T18:29:39.184Z,94663.72
2019-03-18T18:32:21.668Z,94701.77
2019-03-18T18:38:54.016Z,94693.59
2019-03-18T18:41:55.624Z,94668.75
2019-03-18T18:50:26.872Z,94666.95
2019-03-18T18:56:44.219Z,94674.09
2019-03-18T19:07:06.973Z,94639.36
2019-03-18T19:10:28.947Z,94640.48
2019-03-18T19:17:43.072Z,94681.23
2019-03-18T19:28:11.570Z,94674.89
2019-03-18T19:31:18.131Z,94678.31
2019-03-18T19:34:01.032Z,94674.09
2019-03-18T19:36:47.037Z,94669.55
2019-03-18T19:39:28.982Z,94681.23
2019-03-18T19:42:21.123Z,94688.87
2019-03-18T19:45:08.247Z,94669.05
2019-03-18T19:55:18.934Z,94635.77
2019-03-18T19:58:15.274Z,94639.98
2019-03-18T20:18:38.715Z,94638.99
2019-03-18T20:20:23.103Z,94676.70
2019-03-18T20:22:57.980Z,94674.40
2019-03-18T20:25:59.823Z,94713.76
2019-03-18T20:29:31.416Z,94696.36
2019-03-18T20:32:41.911Z,94710.84
2019-03-18T20:35:57.399Z,94696.55
2019-03-18T20:42:03.750Z,94689.37
2019-03-18T20:45:34.196Z,94686.45
2019-03-18T20:53:55.240Z,94695.71
2019-03-18T20:56:44.860Z,94683.84
2019-03-18T21:04:53.730Z,94668.25
2019-03-18T21:08:06.739Z,94702.39
2019-03-18T21:11:26.423Z,94688.87
2019-03-18T21:17:11.982Z,94682.34
2019-03-18T21:20:08.728Z,94658.49
2019-03-18T21:22:46.245Z,94687.07
2019-03-18T21:25:38.716Z,94680.23
2019-03-18T21:28:41.139Z,94673.78
2019-03-18T21:31:17.026Z,94686.77
2019-03-18T21:33:50.555Z,94703.69
2019-03-18T21:37:12.684Z,94662.41
2019-03-18T21:39:56.936Z,94683.84
2019-03-18T21:42:30.253Z,94633.46
2019-03-18T21:45:32.944Z,94640.48
2019-03-18T21:48:03.648Z,94630.42
2019-03-18T21:50:34.214Z,94637.69
2019-03-18T21:53:38.785Z,94630.42
2019-03-18T21:56:47.440Z,94624.70
2019-03-18T21:59:50.362Z,94615.95
2019-03-18T22:02:34.128Z,94625.70
2019-03-18T22:05:25.693Z,94629.36
2019-03-18T22:08:23.824Z,94658.19
2019-03-18T22:10:54.961Z,94643.71
2019-03-18T22:13:25.748Z,94628.63
2019-03-18T22:15:59.628Z,94633.34
2019-03-18T22:18:31.567Z,94628.93
2019-03-18T22:21:02.928Z,94628.44
2019-03-18T22:23:36.157Z,94648.43
2019-03-18T22:26:12.502Z,94614.34
2019-03-18T22:28:57.034Z,94636.57
2019-03-18T22:31:27.721Z,94659.11
2019-03-18T22:33:58.883Z,94659.48
2019-03-18T22:36:29.584Z,94678.94
2019-03-18T22:39:01.492Z,94641.91
2019-03-18T22:41:36.226Z,94647.44
2019-03-18T22:44:14.620Z,94637.69
2019-03-18T22:46:46.939Z,94656.88
2019-03-18T22:49:31.362Z,94665.95
2019-03-18T22:52:12.777Z,94640.61
2019-03-18T22:54:43.711Z,94660.42
2019-03-18T22:57:14.738Z,94674.89
2019-03-18T22:59:48.285Z,94684.96
2019-03-18T23:02:22.476Z,94673.59
2019-03-18T23:04:52.927Z,94653.28
2019-03-18T23:07:53.049Z,94639.30
2019-03-18T23:10:27.243Z,94673.91
2019-03-18T23:12:59.387Z,94674.40
2019-03-18T23:15:36.904Z,94685.77
2019-03-18T23:18:09.255Z,94686.11
2019-03-18T23:20:46.212Z,94673.09
2019-03-18T23:23:20.517Z,94650.86
2019-03-18T23:25:57.987Z,94658.80
2019-03-18T23:28:47.268Z,94664.02
2019-03-18T23:31:18.131Z,94646.44
2019-03-18T23:34:04.711Z,94658.49
2019-03-18T23:37:02.707Z,94675.83
2019-03-18T23:39:43.494Z,94703.81
2019-03-18T23:42:14.366Z,94699.28
2019-03-18T23:44:45.007Z,94719.72
2019-03-18T23:47:16.110Z,94687.87
2019-03-18T23:49:49.728Z,94667.25
2019-03-18T23:52:23.544Z,94679.62
2019-03-18T23:54:54.272Z,94670.98
2019-03-18T23:57:24.969Z,94682.84
2019-03-18T23:59:55.743Z,94689.03
